Deering (New), AK

14:01 AKDT le 31 octobre 2014 (GMT -0800)
Wien Memorial | Change Station
CLOSE
Current Station
Aéroport
Location: Kotzebue,
Altitude: 16 ft
Stations météo à proximité

Alt. 16 ft 66.88 °N, 162.60 °W | Updated 8 minutes ago

Clear
Ciel dégagé
16 ° F
Paraît 3 ° F
N
12
Vent Variable Vent de NE

Aujourd'hui
Haut(e) -- | Bas -- ° F
--% Risque de précip.
Hier
Haut(e) -- | Bas -- ° F
Precip. -- pouce
10:44 AM 6:23 PM
Premier quartier, 59% visible
Pression 29.65 pouce
Visibilité 10.0 Miles terrestres
Nuages Ciel dégagé
Refroidissement éolien 3 ° F
Point de rosée 7 ° F
Humidité 68%
Précipitations 0.00 pouce
Profondeur de la couche neigeuse Non disponible.
UV 0 sur 12
Pollen Non disponible.
Qualité de l'air Non disponible.
Flu Activity Non disponible.
METAR PAOT 312153Z COR 05010KT 10SM CLR M09/M14 A2965 RMK AO2 SLP041 T10891139

More Conditions Fewer Conditions

Pression 29.65 pouce
Visibilité 10.0 Miles terrestres
Nuages Ciel dégagé
Refroidissement éolien 3 ° F
Point de rosée 7 ° F
Humidité 68%
Précipitations 0.00 pouce
Profondeur de la couche neigeuse Non disponible.
UV 0 sur 12
Pollen Non disponible.
Qualité de l'air Non disponible.
Flu Activity Non disponible.
METAR PAOT 312153Z COR 05010KT 10SM CLR M09/M14 A2965 RMK AO2 SLP041 T10891139

More Conditions Fewer Conditions

10-Day Weather Forecast

Almanac

Astronomie

Oct. 31, 2014 Lever Coucher
Temps réel
Crépuscule civil
Crépuscule nautique
Crépuscule astronomique
Lune
Durée de lumière visible
Longueur du jour
Tomorrow will be .
, % of the Moon is Illuminated

Extrêmes aujourd'hui

State Highs State Lows

Community

WunderPhotos

Upload Photos

1,766,751 Photos téléchargées !

WunderBlogs® & News

Nearby

Qualité de l'air

  Qualité de l'air Indice de la qualité de l'air Polluant
Not available.

Épaisseur de neige

Station Depth Altitude

Activité sismique

Ville Distance Mag. Time & Date
Minimum magnitude displayed is 2.5.

Températures des eaux côtières

Lieu Température

Stations météo à proximité